Time;durP1;ratioP1;P1;durP2;ratioP2;P2;SDS_P1;SDS_P2;PMS_P1;PMS_P2;Temp;Humidity;BMP_temperature;BMP_pressure;BME280_temperature;BME280_humidity;BME280_pressure;Samples;Min_cycle;Max_cycle;Signal;HPM_P1;HPM_P2
2022/03/31 00:00:44;;;;;;;26.80;14.88;;;11.80;88.30;;;;;;5009165;28;20056;-71
2022/03/31 00:03:10;;;;;;;;;;;11.70;88.60;;;;;;5004560;28;20030;-71
2022/03/31 00:05:37;;;;;;;24.33;14.27;;;11.70;88.90;;;;;;5008116;28;20137;-71
2022/03/31 00:08:09;;;;;;;27.08;15.65;;;11.70;89.00;;;;;;5004262;28;20372;-72
2022/03/31 00:10:38;;;;;;;26.75;14.80;;;11.70;89.20;;;;;;5002321;28;20041;-72
2022/03/31 00:13:10;;;;;;;24.15;14.20;;;11.70;89.20;;;;;;4983325;28;20029;-71
2022/03/31 00:15:37;;;;;;;26.35;14.85;;;11.70;89.30;;;;;;5005665;28;20030;-71
2022/03/31 00:18:04;;;;;;;30.35;15.35;;;11.70;89.30;;;;;;5006990;28;20107;-71
2022/03/31 00:20:30;;;;;;;23.42;13.43;;;11.70;89.30;;;;;;5006056;28;20410;-71
2022/03/31 00:22:56;;;;;;;23.90;13.77;;;11.70;89.40;;;;;;5006243;28;20033;-72
2022/03/31 00:25:26;;;;;;;27.77;15.70;;;11.80;89.30;;;;;;4992335;28;20112;-71
2022/03/31 00:27:53;;;;;;;27.90;15.35;;;11.80;89.30;;;;;;5007993;28;20029;-71
2022/03/31 00:30:19;;;;;;;23.10;14.93;;;11.70;89.50;;;;;;5010082;28;20030;-71
2022/03/31 00:32:44;;;;;;;;;;;11.70;89.50;;;;;;4972489;28;1147007;-71
2022/03/31 00:35:12;;;;;;;27.67;14.98;;;11.70;89.60;;;;;;4990985;28;20847;-71
2022/03/31 00:37:40;;;;;;;23.40;14.50;;;11.70;89.90;;;;;;5010054;28;20029;-71
2022/03/31 00:40:08;;;;;;;28.25;16.00;;;11.70;89.70;;;;;;5002999;28;20030;-71
2022/03/31 00:42:42;;;;;;;31.17;16.25;;;11.80;89.60;;;;;;5013396;28;20088;-71
2022/03/31 00:45:32;;;;;;;27.60;14.85;;;11.80;89.50;;;;;;5007542;28;20444;-71
2022/03/31 00:47:58;;;;;;;28.77;15.15;;;11.70;89.70;;;;;;5006568;28;20036;-71
2022/03/31 00:50:25;;;;;;;27.23;15.23;;;11.70;90.10;;;;;;5010293;28;20231;-71
2022/03/31 00:52:51;;;;;;;24.42;14.95;;;11.50;90.20;;;;;;5003747;28;20037;-72
2022/03/31 00:55:19;;;;;;;29.47;15.83;;;11.50;90.40;;;;;;5011673;28;20022;-71
2022/03/31 00:57:48;;;;;;;27.33;14.65;;;11.30;90.70;;;;;;5012098;28;20018;-71
2022/03/31 01:00:14;;;;;;;26.48;14.32;;;11.20;90.90;;;;;;5000256;28;20026;-71
2022/03/31 01:02:43;;;;;;;25.77;14.40;;;11.20;91.10;;;;;;5011755;28;20026;-71
2022/03/31 01:05:09;;;;;;;26.88;15.20;;;11.10;91.20;;;;;;5004193;28;20046;-71
2022/03/31 01:07:37;;;;;;;29.10;14.05;;;11.10;91.30;;;;;;5010873;28;20034;-72
2022/03/31 01:10:04;;;;;;;26.38;15.57;;;11.10;91.60;;;;;;5005489;28;20030;-71
2022/03/31 01:12:30;;;;;;;27.42;15.23;;;11.10;91.30;;;;;;5011399;28;20022;-71
2022/03/31 01:15:14;;;;;;;24.47;14.83;;;11.20;91.40;;;;;;5008616;28;20095;-71
2022/03/31 01:17:42;;;;;;;27.42;14.65;;;11.20;91.40;;;;;;4994866;28;20029;-70
2022/03/31 01:20:11;;;;;;;26.90;14.80;;;11.20;91.20;;;;;;5003116;28;20467;-71
2022/03/31 01:22:37;;;;;;;27.83;15.07;;;11.30;91.20;;;;;;5006754;28;20102;-71
2022/03/31 01:25:06;;;;;;;26.70;14.55;;;11.30;91.30;;;;;;5006148;28;20110;-71
2022/03/31 01:27:35;;;;;;;25.75;14.25;;;11.30;91.30;;;;;;5005638;28;20044;-71
2022/03/31 01:30:01;;;;;;;27.30;15.45;;;11.20;91.40;;;;;;5002184;28;20049;-71
2022/03/31 01:32:27;;;;;;;26.58;14.73;;;11.30;91.50;;;;;;5007147;28;20026;-71
2022/03/31 01:34:54;;;;;;;25.48;15.30;;;11.20;91.50;;;;;;5007557;28;20053;-71
2022/03/31 01:37:20;;;;;;;28.45;14.93;;;11.20;91.60;;;;;;5007048;28;20029;-71
2022/03/31 01:39:45;;;;;;;27.83;15.73;;;11.10;91.80;;;;;;5009448;28;20514;-71
2022/03/31 01:42:12;;;;;;;28.20;14.13;;;11.10;91.90;;;;;;5004889;28;20132;-71
2022/03/31 01:44:38;;;;;;;;;;;11.20;91.80;;;;;;5009997;28;20017;-71
2022/03/31 01:47:04;;;;;;;30.25;14.82;;;11.30;91.70;;;;;;4983483;28;20358;-71
2022/03/31 01:49:29;;;;;;;36.20;16.08;;;11.30;91.60;;;;;;5009672;28;20036;-71
2022/03/31 01:51:55;;;;;;;30.83;17.07;;;11.30;91.50;;;;;;5010104;28;20033;-71
2022/03/31 01:54:21;;;;;;;27.83;15.77;;;11.30;91.70;;;;;;5006641;28;21530;-71
2022/03/31 01:56:48;;;;;;;25.77;16.20;;;11.20;91.70;;;;;;5011114;28;20703;-71
2022/03/31 01:59:13;;;;;;;28.85;15.88;;;11.20;91.80;;;;;;5006275;28;20044;-71
2022/03/31 02:01:39;;;;;;;31.17;16.53;;;11.10;91.80;;;;;;5012993;28;20112;-71
2022/03/31 02:04:06;;;;;;;27.63;16.77;;;11.10;91.90;;;;;;4983854;28;20110;-71
2022/03/31 02:06:32;;;;;;;29.70;17.25;;;11.10;91.90;;;;;;4993227;28;20048;-71
2022/03/31 02:08:57;;;;;;;31.57;16.83;;;11.10;91.90;;;;;;5008915;28;20432;-71
2022/03/31 02:11:24;;;;;;;27.20;15.90;;;11.10;91.90;;;;;;5011197;28;20124;-71
2022/03/31 02:13:49;;;;;;;27.33;16.50;;;11.10;91.90;;;;;;5009240;28;20713;-71
2022/03/31 02:16:15;;;;;;;29.10;18.03;;;11.10;92.00;;;;;;5009336;28;20053;-71
2022/03/31 02:18:42;;;;;;;31.37;18.23;;;11.10;92.10;;;;;;5007417;28;20056;-71
2022/03/31 02:21:07;;;;;;;;;;;11.00;92.10;;;;;;5011030;28;20683;-71
2022/03/31 02:23:33;;;;;;;28.73;16.27;;;11.00;92.20;;;;;;5004421;28;19915;-71
2022/03/31 02:25:59;;;;;;;30.07;17.20;;;11.00;92.30;;;;;;5014147;28;20128;-71
2022/03/31 02:28:24;;;;;;;30.40;16.77;;;10.90;92.30;;;;;;5012154;28;20583;-71
2022/03/31 02:30:50;;;;;;;31.07;16.90;;;10.90;92.50;;;;;;4999339;28;20028;-71
2022/03/31 02:33:16;;;;;;;30.63;17.10;;;10.90;92.60;;;;;;4988941;28;20022;-70
2022/03/31 02:35:41;;;;;;;32.77;16.87;;;11.00;92.50;;;;;;4986359;28;20021;-71
2022/03/31 02:38:07;;;;;;;34.90;16.37;;;11.00;92.50;;;;;;5010482;28;20056;-71
2022/03/31 02:40:33;;;;;;;28.43;16.63;;;11.00;92.40;;;;;;5006825;28;20030;-70
2022/03/31 02:42:58;;;;;;;26.03;15.80;;;11.00;92.60;;;;;;5014084;28;20641;-71
2022/03/31 02:45:24;;;;;;;30.13;16.53;;;11.00;92.60;;;;;;4983244;28;20362;-71
2022/03/31 02:47:50;;;;;;;28.53;15.50;;;11.00;92.50;;;;;;5008689;28;20026;-71
2022/03/31 02:50:17;;;;;;;28.63;17.00;;;11.00;92.50;;;;;;5008957;28;21759;-71
2022/03/31 02:55:30;;;;;;;26.65;16.10;;;11.00;92.50;;;;;;5010929;28;20151;-71
2022/03/31 02:58:02;;;;;;;30.27;16.80;;;11.00;92.50;;;;;;5007703;28;20029;-71
2022/03/31 03:00:34;;;;;;;28.30;16.15;;;11.00;92.50;;;;;;4985629;28;20496;-71
2022/03/31 03:03:02;;;;;;;31.42;17.00;;;11.00;92.50;;;;;;5006360;28;20051;-71
2022/03/31 03:05:28;;;;;;;32.03;16.88;;;11.00;92.60;;;;;;5009900;28;20068;-70
2022/03/31 03:07:53;;;;;;;29.23;17.27;;;10.90;92.70;;;;;;4987792;28;20029;-71
2022/03/31 03:10:19;;;;;;;28.77;17.03;;;10.70;92.80;;;;;;5009317;28;20705;-71
2022/03/31 03:12:45;;;;;;;30.43;16.43;;;10.70;93.00;;;;;;5007961;28;20108;-70
2022/03/31 03:15:11;;;;;;;35.20;18.57;;;10.80;93.00;;;;;;5011885;28;20252;-70
2022/03/31 03:17:44;;;;;;;31.85;17.13;;;10.80;93.10;;;;;;5008483;28;20136;-71
2022/03/31 03:20:13;;;;;;;29.67;17.70;;;10.80;93.10;;;;;;5008874;28;20028;-71
2022/03/31 03:22:44;;;;;;;29.95;17.20;;;10.80;93.20;;;;;;4985329;28;20489;-71
2022/03/31 03:25:11;;;;;;;30.88;16.98;;;10.70;93.20;;;;;;5008112;28;20034;-71
2022/03/31 03:27:38;;;;;;;30.30;16.77;;;10.70;93.30;;;;;;5003735;28;20024;-71
2022/03/31 03:30:04;;;;;;;30.73;16.05;;;10.70;93.30;;;;;;4991211;28;20068;-71
2022/03/31 03:32:30;;;;;;;38.63;19.45;;;10.70;93.50;;;;;;5006612;28;20116;-71
2022/03/31 03:34:56;;;;;;;28.30;17.27;;;10.70;93.60;;;;;;5004702;28;20108;-71
2022/03/31 03:37:21;;;;;;;29.93;18.20;;;10.60;93.60;;;;;;5004208;28;20029;-71
2022/03/31 03:39:47;;;;;;;30.53;16.93;;;10.60;93.70;;;;;;5003804;28;20029;-71
2022/03/31 03:42:13;;;;;;;32.13;17.63;;;10.60;93.60;;;;;;5008895;28;20033;-71
2022/03/31 03:44:39;;;;;;;34.47;18.23;;;10.60;93.80;;;;;;5007007;28;20029;-71
2022/03/31 03:47:05;;;;;;;33.67;17.67;;;10.60;93.90;;;;;;4984123;28;20045;-71
2022/03/31 03:49:31;;;;;;;35.30;19.02;;;10.60;94.00;;;;;;5001262;28;20491;-71
2022/03/31 03:51:57;;;;;;;32.70;18.90;;;10.60;93.90;;;;;;5010178;28;20038;-71
2022/03/31 03:54:23;;;;;;;33.45;19.05;;;10.50;94.00;;;;;;5006758;28;21443;-71
2022/03/31 03:56:49;;;;;;;39.83;19.63;;;10.60;94.00;;;;;;5004024;28;20026;-71
2022/03/31 03:59:14;;;;;;;31.30;18.47;;;10.60;94.10;;;;;;4991470;28;20426;-71
2022/03/31 04:01:40;;;;;;;38.17;19.10;;;10.50;94.20;;;;;;5006362;28;20009;-71
2022/03/31 04:04:06;;;;;;;35.53;19.37;;;10.50;94.30;;;;;;5007901;28;20017;-70
2022/03/31 04:06:31;;;;;;;32.30;17.97;;;10.50;94.40;;;;;;5008841;28;20014;-71
2022/03/31 04:08:57;;;;;;;35.80;19.20;;;10.50;94.50;;;;;;4986309;28;20045;-71
2022/03/31 04:11:22;;;;;;;38.43;19.33;;;10.50;94.50;;;;;;5004077;28;20029;-71
2022/03/31 04:13:49;;;;;;;30.03;18.07;;;10.50;94.70;;;;;;4982360;28;20044;-71
2022/03/31 04:16:15;;;;;;;35.03;18.83;;;10.60;94.50;;;;;;4987102;28;20518;-70
2022/03/31 04:18:41;;;;;;;35.13;19.70;;;10.60;94.40;;;;;;5002865;28;20030;-71
2022/03/31 04:21:07;;;;;;;37.07;19.80;;;10.70;94.40;;;;;;5002477;28;20037;-70
2022/03/31 04:23:34;;;;;;;36.08;18.42;;;10.70;94.40;;;;;;5005150;28;20622;-70
2022/03/31 04:25:59;;;;;;;34.80;18.88;;;10.70;94.40;;;;;;4988163;28;20060;-70
2022/03/31 04:28:26;;;;;;;32.63;18.93;;;10.70;94.30;;;;;;4984802;28;20057;-69
2022/03/31 04:30:52;;;;;;;36.65;19.13;;;10.70;94.50;;;;;;5005922;28;20022;-70
2022/03/31 04:33:17;;;;;;;35.55;19.73;;;10.70;94.60;;;;;;5008528;28;20038;-71
2022/03/31 04:35:43;;;;;;;35.83;18.33;;;10.70;94.60;;;;;;5007245;28;20430;-70
2022/03/31 04:38:08;;;;;;;34.70;19.33;;;10.80;94.40;;;;;;5011294;28;20057;-70
2022/03/31 04:40:35;;;;;;;36.63;18.43;;;10.70;94.40;;;;;;5003728;28;20124;-71
2022/03/31 04:43:01;;;;;;;;;;;10.70;94.40;;;;;;5009262;28;20117;-70
2022/03/31 04:45:26;;;;;;;37.47;19.65;;;10.70;94.50;;;;;;5001096;28;19905;-71
2022/03/31 04:47:52;;;;;;;36.80;19.50;;;10.70;94.60;;;;;;5009730;28;20030;-70
2022/03/31 04:50:18;;;;;;;35.57;20.20;;;10.70;94.60;;;;;;5000273;28;20036;-71
2022/03/31 04:52:43;;;;;;;38.20;19.50;;;10.70;94.60;;;;;;5010103;28;20377;-71
2022/03/31 04:55:09;;;;;;;36.53;19.80;;;10.70;94.60;;;;;;5004536;28;20041;-71
2022/03/31 04:57:35;;;;;;;37.70;20.05;;;10.70;94.70;;;;;;5003414;28;20028;-70
2022/03/31 05:00:01;;;;;;;33.50;19.30;;;10.70;94.70;;;;;;4989027;28;20475;-71
2022/03/31 05:02:27;;;;;;;39.75;19.48;;;10.70;94.70;;;;;;5008945;28;20096;-71
2022/03/31 05:04:53;;;;;;;35.40;18.57;;;10.70;94.70;;;;;;5011626;28;20026;-70
2022/03/31 05:07:19;;;;;;;36.50;19.80;;;10.70;94.80;;;;;;5006011;28;20921;-71
2022/03/31 05:09:45;;;;;;;40.05;21.17;;;10.70;95.00;;;;;;4988014;28;20020;-70
2022/03/31 05:12:12;;;;;;;36.30;19.92;;;10.70;94.90;;;;;;5012631;28;20092;-71
2022/03/31 05:14:40;;;;;;;39.08;20.55;;;10.80;95.00;;;;;;4988379;28;20712;-70
2022/03/31 05:17:07;;;;;;;40.17;21.65;;;10.80;95.00;;;;;;5013021;28;20367;-71
2022/03/31 05:19:34;;;;;;;40.25;20.77;;;10.80;95.00;;;;;;5006419;28;20045;-70
2022/03/31 05:22:01;;;;;;;38.08;21.02;;;10.80;95.10;;;;;;5013472;28;20087;-71
2022/03/31 05:24:27;;;;;;;40.42;20.63;;;10.70;95.00;;;;;;5015677;28;20026;-71
2022/03/31 05:26:53;;;;;;;35.27;20.07;;;10.80;95.30;;;;;;5008204;28;20044;-71
2022/03/31 05:29:21;;;;;;;38.95;20.67;;;10.80;95.00;;;;;;4988707;28;20026;-71
2022/03/31 05:31:47;;;;;;;43.47;20.80;;;10.80;95.00;;;;;;5005827;28;20022;-71
2022/03/31 05:34:14;;;;;;;38.42;21.13;;;10.80;94.90;;;;;;4992121;28;20048;-71
2022/03/31 05:36:40;;;;;;;44.75;21.98;;;10.70;94.90;;;;;;5009532;28;20097;-71
2022/03/31 05:39:06;;;;;;;42.73;23.97;;;10.70;94.80;;;;;;4990941;28;20125;-71
2022/03/31 05:41:33;;;;;;;40.28;22.83;;;10.60;94.90;;;;;;5015305;28;20033;-71
2022/03/31 05:43:59;;;;;;;36.47;20.75;;;10.50;94.90;;;;;;5008111;28;20505;-71
2022/03/31 05:46:25;;;;;;;45.90;23.23;;;10.50;95.10;;;;;;5009790;28;20036;-70
2022/03/31 05:48:53;;;;;;;46.28;23.83;;;10.40;95.20;;;;;;5003920;28;20104;-71
2022/03/31 05:51:19;;;;;;;45.33;23.15;;;10.40;95.20;;;;;;5010717;28;20010;-71
2022/03/31 05:53:44;;;;;;;44.17;23.55;;;10.40;95.20;;;;;;5009464;28;20079;-70
2022/03/31 05:56:11;;;;;;;45.17;23.67;;;10.40;95.30;;;;;;4989528;28;20037;-70
2022/03/31 05:58:37;;;;;;;;;;;10.40;95.20;;;;;;5001040;28;20060;-70
2022/03/31 06:01:04;;;;;;;45.42;23.05;;;10.40;95.30;;;;;;5010547;28;19904;-70
2022/03/31 06:03:30;;;;;;;44.78;23.42;;;10.40;95.40;;;;;;5007335;28;20026;-70
2022/03/31 06:05:57;;;;;;;41.03;23.88;;;10.40;95.30;;;;;;5009723;28;20029;-70
2022/03/31 06:08:23;;;;;;;40.13;23.65;;;10.40;95.50;;;;;;5010821;28;20099;-70
2022/03/31 06:10:49;;;;;;;41.15;22.92;;;10.40;95.60;;;;;;5006229;28;20025;-70
2022/03/31 06:13:14;;;;;;;46.43;24.47;;;10.30;95.60;;;;;;5009475;28;20026;-70
2022/03/31 06:15:41;;;;;;;45.73;23.50;;;10.40;95.50;;;;;;5007615;28;20158;-71
2022/03/31 06:18:07;;;;;;;;;;;10.40;95.50;;;;;;5011253;28;20396;-70
2022/03/31 06:20:35;;;;;;;45.40;23.60;;;10.30;95.30;;;;;;5008062;28;19916;-70
2022/03/31 06:23:01;;;;;;;44.58;23.60;;;10.40;95.50;;;;;;5007595;28;20037;-70
2022/03/31 06:25:27;;;;;;;;;;;10.40;95.40;;;;;;4991848;28;20067;-70
2022/03/31 06:27:54;;;;;;;42.22;22.35;;;10.40;95.50;;;;;;5003859;28;20007;-70
2022/03/31 06:30:20;;;;;;;45.30;23.20;;;10.40;95.50;;;;;;5012004;28;20033;-71
2022/03/31 06:32:46;;;;;;;44.63;23.70;;;10.30;95.60;;;;;;5009491;28;20029;-70
2022/03/31 06:35:14;;;;;;;;;;;10.30;95.80;;;;;;4990407;28;20275;-70
2022/03/31 06:37:43;;;;;;;47.53;24.45;;;10.30;96.00;;;;;;4990445;28;19921;-71
2022/03/31 06:40:12;;;;;;;44.00;25.60;;;10.20;96.10;;;;;;5009320;28;20060;-70
2022/03/31 06:42:39;;;;;;;43.75;23.00;;;10.10;96.50;;;;;;4988156;28;20033;-70
2022/03/31 06:45:08;;;;;;;;;;;10.10;96.80;;;;;;5013633;28;20029;-70
2022/03/31 06:47:36;;;;;;;43.63;23.20;;;10.10;97.20;;;;;;5009964;28;19956;-70
2022/03/31 06:50:02;;;;;;;48.45;25.02;;;10.20;97.70;;;;;;5005530;28;20025;-70
2022/03/31 06:52:28;;;;;;;;;;;10.10;97.60;;;;;;5011513;28;20034;-70
2022/03/31 06:54:55;;;;;;;54.50;26.67;;;10.00;97.60;;;;;;5001825;28;19913;-70
2022/03/31 06:57:20;;;;;;;48.30;26.15;;;10.00;97.90;;;;;;4994782;28;20574;-70
2022/03/31 06:59:46;;;;;;;50.00;24.73;;;10.00;97.90;;;;;;5007093;28;20522;-70
2022/03/31 07:02:12;;;;;;;51.10;25.50;;;10.00;98.20;;;;;;5012089;28;20518;-70
2022/03/31 07:04:37;;;;;;;46.27;25.87;;;10.00;98.50;;;;;;5006818;28;20087;-70
2022/03/31 07:07:03;;;;;;;48.17;26.40;;;9.90;98.40;;;;;;5002572;28;20466;-70
2022/03/31 07:09:29;;;;;;;48.10;26.10;;;9.90;98.50;;;;;;5007503;28;20045;-70
2022/03/31 07:11:55;;;;;;;49.63;25.53;;;9.90;98.80;;;;;;5003237;28;20032;-70
2022/03/31 07:14:21;;;;;;;52.97;25.17;;;9.90;99.10;;;;;;4992779;28;20022;-70
2022/03/31 07:16:46;;;;;;;51.97;25.67;;;9.90;99.50;;;;;;5006847;28;20021;-71
2022/03/31 07:19:12;;;;;;;45.17;24.17;;;9.90;99.80;;;;;;5009139;28;20322;-70
2022/03/31 07:21:38;;;;;;;46.77;25.90;;;10.00;99.80;;;;;;4999172;28;20026;-70
2022/03/31 07:24:04;;;;;;;48.07;26.43;;;10.10;99.80;;;;;;5006791;28;20052;-70
2022/03/31 07:26:31;;;;;;;52.47;27.15;;;10.10;99.90;;;;;;5010678;28;20064;-70
2022/03/31 07:28:56;;;;;;;45.42;25.75;;;10.00;99.90;;;;;;5000685;28;20029;-70
2022/03/31 07:31:24;;;;;;;48.70;26.47;;;10.00;99.90;;;;;;4988130;28;20483;-70
2022/03/31 07:33:49;;;;;;;50.33;26.35;;;10.00;99.90;;;;;;5004402;28;20017;-70
2022/03/31 07:36:15;;;;;;;46.97;26.73;;;10.00;99.90;;;;;;5013138;28;20984;-70
2022/03/31 07:38:41;;;;;;;46.60;26.70;;;10.00;99.90;;;;;;5007181;28;20021;-70
2022/03/31 07:41:08;;;;;;;52.93;26.77;;;10.00;99.90;;;;;;5009615;28;20112;-70
2022/03/31 07:43:34;;;;;;;;;;;10.00;99.90;;;;;;4988386;28;20025;-70
2022/03/31 07:46:00;;;;;;;48.78;25.40;;;10.00;99.90;;;;;;5000518;28;19916;-70
2022/03/31 07:48:25;;;;;;;50.50;27.02;;;10.00;99.90;;;;;;5009428;28;20030;-70
2022/03/31 07:50:51;;;;;;;46.07;25.53;;;10.10;99.90;;;;;;5005076;28;20061;-70
2022/03/31 07:53:17;;;;;;;48.27;26.43;;;10.10;99.90;;;;;;5004532;28;20034;-70
2022/03/31 07:55:43;;;;;;;45.97;25.83;;;10.10;99.90;;;;;;5002155;28;20564;-70
2022/03/31 07:58:08;;;;;;;47.47;26.10;;;10.10;99.90;;;;;;5003897;28;20362;-70
2022/03/31 08:00:34;;;;;;;45.63;25.67;;;10.10;99.90;;;;;;5013523;28;20029;-70
2022/03/31 08:03:01;;;;;;;50.97;26.25;;;10.00;99.90;;;;;;5002568;28;20037;-70
2022/03/31 08:05:27;;;;;;;;;;;10.10;99.90;;;;;;5008851;28;20029;-70
2022/03/31 08:07:53;;;;;;;44.20;25.17;;;10.00;99.90;;;;;;5004960;28;20445;-70
2022/03/31 08:10:21;;;;;;;48.42;26.08;;;10.00;99.90;;;;;;5004479;28;20033;-70
2022/03/31 08:12:47;;;;;;;43.17;25.38;;;10.00;99.90;;;;;;5003171;28;20049;-71
2022/03/31 08:15:15;;;;;;;46.67;26.00;;;9.90;99.90;;;;;;5013144;28;20383;-71
2022/03/31 08:17:42;;;;;;;45.72;25.23;;;10.00;99.90;;;;;;4996160;28;20026;-71
2022/03/31 08:20:10;;;;;;;45.35;25.08;;;10.00;99.90;;;;;;5015689;28;20109;-71
2022/03/31 08:22:36;;;;;;;48.47;27.30;;;9.90;99.90;;;;;;5006083;28;20029;-71
2022/03/31 08:25:03;;;;;;;44.70;25.20;;;9.80;99.90;;;;;;5007157;28;20100;-71
2022/03/31 08:27:32;;;;;;;42.72;24.33;;;9.80;99.90;;;;;;4996652;28;20033;-71
2022/03/31 08:29:57;;;;;;;47.55;26.10;;;9.80;99.90;;;;;;5005586;28;20021;-71
2022/03/31 08:32:23;;;;;;;41.40;23.87;;;9.80;99.90;;;;;;5016705;28;20029;-71
2022/03/31 08:34:49;;;;;;;43.77;24.40;;;9.80;99.90;;;;;;5009587;28;20358;-71
2022/03/31 08:37:15;;;;;;;40.83;23.13;;;9.80;99.90;;;;;;5020910;28;20276;-70
2022/03/31 08:39:42;;;;;;;41.50;23.93;;;9.90;99.90;;;;;;5020233;28;20257;-71
2022/03/31 08:42:07;;;;;;;;;;;9.80;99.90;;;;;;5016947;28;20053;-71
2022/03/31 08:44:35;;;;;;;38.35;22.73;;;9.90;99.90;;;;;;5017895;28;19955;-71
2022/03/31 08:47:02;;;;;;;39.97;22.08;;;10.00;99.90;;;;;;5014649;28;20648;-71
2022/03/31 08:49:29;;;;;;;36.83;22.67;;;9.90;99.90;;;;;;5017558;28;20026;-71
2022/03/31 08:51:55;;;;;;;41.47;24.50;;;10.00;99.90;;;;;;5012760;28;20021;-71
2022/03/31 08:54:21;;;;;;;42.20;23.13;;;10.00;99.90;;;;;;4989722;28;20032;-71
2022/03/31 08:56:47;;;;;;;39.72;23.55;;;10.00;99.90;;;;;;5016975;28;20057;-70
2022/03/31 08:59:13;;;;;;;38.00;23.00;;;10.00;99.90;;;;;;5020659;28;20132;-71
2022/03/31 09:01:39;;;;;;;37.03;21.37;;;10.00;99.90;;;;;;4998361;28;20025;-71
2022/03/31 09:04:17;;;;;;;37.75;22.63;;;10.00;99.90;;;;;;5016579;28;20442;-70
2022/03/31 09:06:43;;;;;;;39.90;22.95;;;10.00;99.90;;;;;;5018358;28;20033;-71
2022/03/31 09:09:11;;;;;;;35.00;21.77;;;10.10;99.90;;;;;;5016849;28;20382;-70
2022/03/31 09:11:37;;;;;;;35.80;21.30;;;10.10;99.90;;;;;;4998487;28;20500;-71
2022/03/31 09:14:04;;;;;;;38.40;22.42;;;10.10;99.90;;;;;;5016596;28;20021;-71
2022/03/31 09:16:36;;;;;;;37.20;21.98;;;10.20;99.90;;;;;;5016487;28;20542;-71
2022/03/31 09:19:09;;;;;;;34.40;21.00;;;10.20;99.90;;;;;;5013004;28;20468;-71
2022/03/31 09:21:54;;;;;;;33.88;19.63;;;10.30;99.90;;;;;;4994519;28;20031;-71
2022/03/31 09:24:22;;;;;;;36.78;20.60;;;10.30;99.90;;;;;;5016941;28;20641;-71
2022/03/31 09:26:49;;;;;;;34.13;20.10;;;10.20;99.90;;;;;;4996961;28;20037;-71
2022/03/31 09:29:17;;;;;;;31.67;19.73;;;10.10;99.90;;;;;;5001133;28;20029;-71
2022/03/31 09:31:43;;;;;;;33.85;20.17;;;10.10;99.90;;;;;;5017032;28;20025;-71
2022/03/31 09:34:10;;;;;;;35.35;20.70;;;10.10;99.90;;;;;;4993980;28;20482;-71
2022/03/31 09:36:37;;;;;;;;;;;10.00;99.90;;;;;;4984184;28;20022;-70
2022/03/31 09:39:09;;;;;;;31.55;18.80;;;10.00;99.90;;;;;;5012345;28;19912;-71
2022/03/31 09:41:39;;;;;;;31.35;18.95;;;9.90;99.90;;;;;;4988447;28;20116;-71
2022/03/31 09:44:16;;;;;;;31.92;18.75;;;9.90;99.90;;;;;;5011769;28;20489;-70
2022/03/31 09:46:44;;;;;;;33.22;18.58;;;9.90;99.90;;;;;;4990841;28;20018;-71
2022/03/31 09:49:13;;;;;;;30.50;17.75;;;9.90;99.90;;;;;;4991864;28;20586;-70
2022/03/31 09:51:40;;;;;;;30.10;17.88;;;9.80;99.90;;;;;;5013923;28;20603;-70
2022/03/31 09:54:08;;;;;;;30.88;18.17;;;9.80;99.90;;;;;;5014926;28;20514;-71
2022/03/31 09:56:35;;;;;;;32.55;19.02;;;9.80;99.90;;;;;;5013233;28;20067;-70
2022/03/31 09:59:03;;;;;;;32.13;17.92;;;9.80;99.90;;;;;;5016008;28;20473;-71
2022/03/31 10:01:29;;;;;;;54.90;23.58;;;9.90;99.90;;;;;;5014349;28;20029;-70
2022/03/31 10:03:56;;;;;;;33.47;18.85;;;9.90;99.90;;;;;;4997662;28;20036;-71
2022/03/31 10:06:27;;;;;;;28.92;17.77;;;9.80;99.90;;;;;;4996500;28;20033;-70
2022/03/31 10:08:56;;;;;;;28.48;17.08;;;9.80;99.90;;;;;;5014172;28;20112;-71
2022/03/31 10:11:23;;;;;;;30.98;17.52;;;9.70;99.90;;;;;;5015740;28;20105;-71
2022/03/31 10:13:49;;;;;;;29.92;17.15;;;9.70;99.90;;;;;;5015173;28;20354;-70
2022/03/31 10:16:19;;;;;;;30.13;17.23;;;9.70;99.90;;;;;;5014711;28;20025;-71
2022/03/31 10:18:49;;;;;;;31.08;18.33;;;9.70;99.90;;;;;;5019589;28;20037;-70
2022/03/31 10:21:36;;;;;;;30.25;16.45;;;9.60;99.90;;;;;;5014309;28;20034;-70
2022/03/31 10:26:57;;;;;;;30.40;16.10;;;9.70;99.90;;;;;;5013342;28;20032;-70
2022/03/31 10:29:22;;;;;;;28.80;17.40;;;9.70;99.90;;;;;;5018097;28;20025;-71
2022/03/31 10:31:49;;;;;;;29.20;16.87;;;9.70;99.90;;;;;;5013257;28;20048;-71
2022/03/31 10:34:15;;;;;;;27.20;16.48;;;9.70;99.90;;;;;;5016421;28;20032;-70
2022/03/31 10:36:47;;;;;;;26.88;15.65;;;9.80;99.90;;;;;;5013841;28;20021;-70
2022/03/31 10:39:31;;;;;;;25.52;15.75;;;9.80;99.90;;;;;;4994447;28;20035;-70
2022/03/31 10:42:07;;;;;;;24.98;15.52;;;9.80;99.90;;;;;;5009917;28;20033;-71
2022/03/31 10:44:32;;;;;;;24.55;15.82;;;10.00;99.90;;;;;;5015180;28;20029;-70
2022/03/31 10:47:01;;;;;;;24.20;14.67;;;10.10;99.90;;;;;;4990638;28;20036;-70
2022/03/31 10:49:27;;;;;;;25.58;15.82;;;10.10;99.90;;;;;;4994200;28;20276;-71
2022/03/31 10:51:53;;;;;;;25.08;15.65;;;10.10;99.90;;;;;;5009410;28;20071;-71
2022/03/31 10:54:33;;;;;;;24.23;15.90;;;10.10;99.90;;;;;;5017563;28;20030;-70
2022/03/31 10:57:12;;;;;;;22.02;14.27;;;10.20;99.90;;;;;;5011892;28;20263;-70
2022/03/31 10:59:39;;;;;;;23.63;15.32;;;10.30;99.90;;;;;;5009762;28;20522;-71
2022/03/31 11:02:19;;;;;;;24.88;15.30;;;10.30;99.90;;;;;;5008218;28;20025;-71
2022/03/31 11:04:52;;;;;;;20.85;13.50;;;10.30;99.90;;;;;;4999705;28;20092;-70
2022/03/31 11:07:21;;;;;;;22.23;13.38;;;10.40;99.90;;;;;;5007938;28;20030;-71
2022/03/31 11:09:47;;;;;;;26.30;15.13;;;10.30;99.90;;;;;;5017510;28;20048;-71
2022/03/31 11:12:26;;;;;;;24.48;14.30;;;10.30;99.90;;;;;;4995131;28;20112;-71
2022/03/31 11:15:04;;;;;;;20.13;13.52;;;10.30;99.90;;;;;;5016405;28;20359;-71
2022/03/31 11:17:30;;;;;;;22.65;14.10;;;10.30;99.90;;;;;;5018081;28;20026;-71
2022/03/31 11:19:58;;;;;;;20.58;13.68;;;10.40;99.90;;;;;;5013250;28;20475;-70
2022/03/31 11:22:27;;;;;;;20.67;14.13;;;10.30;99.90;;;;;;5013939;28;20045;-70
2022/03/31 11:25:06;;;;;;;19.38;13.73;;;10.20;99.90;;;;;;4997805;28;20056;-71
2022/03/31 11:27:37;;;;;;;20.58;13.57;;;10.10;99.90;;;;;;5014668;28;20021;-71
2022/03/31 11:30:11;;;;;;;22.23;13.18;;;10.00;99.90;;;;;;4996616;28;20030;-70
2022/03/31 11:32:38;;;;;;;22.70;14.23;;;9.90;99.90;;;;;;5014514;28;20036;-71
2022/03/31 11:35:09;;;;;;;;;;;9.80;99.90;;;;;;4997121;28;20391;-71
2022/03/31 11:37:40;;;;;;;19.25;12.48;;;9.80;99.90;;;;;;5005074;28;20479;-70
2022/03/31 11:40:07;;;;;;;21.40;13.23;;;9.80;99.90;;;;;;5009785;28;20029;-71
2022/03/31 11:42:32;;;;;;;20.52;13.85;;;9.80;99.90;;;;;;5018614;28;20053;-71
2022/03/31 11:44:58;;;;;;;17.60;12.10;;;9.90;99.90;;;;;;5014022;28;20064;-71
2022/03/31 11:47:24;;;;;;;21.53;12.73;;;9.90;99.90;;;;;;5013457;28;20025;-70
2022/03/31 11:49:58;;;;;;;20.13;12.87;;;9.80;99.90;;;;;;5016959;28;20379;-70
2022/03/31 11:52:28;;;;;;;20.83;12.90;;;9.80;99.90;;;;;;4995918;28;20021;-70
2022/03/31 11:54:58;;;;;;;20.10;12.65;;;9.80;99.90;;;;;;5014550;28;20032;-71
2022/03/31 11:57:24;;;;;;;20.40;13.23;;;9.80;99.90;;;;;;5013721;28;20038;-71
2022/03/31 11:59:51;;;;;;;19.33;11.93;;;9.90;99.90;;;;;;5016738;28;20025;-70
2022/03/31 12:02:18;;;;;;;25.13;13.05;;;9.90;99.90;;;;;;5010740;28;20037;-71
2022/03/31 12:04:45;;;;;;;22.00;12.82;;;9.80;99.90;;;;;;5017404;28;20032;-70
2022/03/31 12:07:12;;;;;;;19.88;12.55;;;9.60;99.90;;;;;;5013019;28;20816;-70
2022/03/31 12:09:41;;;;;;;19.98;12.85;;;9.60;99.90;;;;;;5015443;28;20140;-70
2022/03/31 12:12:10;;;;;;;20.90;13.20;;;9.60;99.90;;;;;;5017856;28;20140;-70
2022/03/31 12:14:38;;;;;;;23.38;13.35;;;9.60;99.90;;;;;;5000290;28;20025;-70
2022/03/31 12:17:04;;;;;;;20.48;13.55;;;9.50;99.90;;;;;;5017993;28;20029;-71
2022/03/31 12:19:40;;;;;;;20.60;13.52;;;9.40;99.90;;;;;;5018552;28;20611;-71
2022/03/31 12:22:07;;;;;;;24.60;14.23;;;9.40;99.90;;;;;;5014434;28;20043;-71
2022/03/31 12:24:33;;;;;;;22.98;14.45;;;9.40;99.90;;;;;;5018350;28;20022;-70
2022/03/31 12:27:00;;;;;;;22.43;13.97;;;9.30;99.90;;;;;;5018343;28;20482;-70
2022/03/31 12:29:29;;;;;;;19.92;12.55;;;9.30;99.90;;;;;;5020789;28;20626;-71
2022/03/31 12:32:07;;;;;;;24.50;14.98;;;9.30;99.90;;;;;;4997964;28;20045;-71
2022/03/31 12:34:38;;;;;;;18.50;13.02;;;9.20;99.90;;;;;;5021627;28;20025;-71
2022/03/31 12:37:04;;;;;;;21.27;13.90;;;9.20;99.90;;;;;;5013856;28;20021;-71
2022/03/31 12:39:38;;;;;;;21.42;13.75;;;9.30;99.90;;;;;;5017070;28;20075;-70